Time;durP1;ratioP1;P1;durP2;ratioP2;P2;SDS_P1;SDS_P2;PMS_P1;PMS_P2;Temp;Humidity;BMP_temperature;BMP_pressure;BME280_temperature;BME280_humidity;BME280_pressure;Samples;Min_cycle;Max_cycle;Signal;HPM_P1;HPM_P2
2022/03/28 00:01:23;;;;;;;0.00;0.00;;;11.10;69.70;;;;;;5081293;28;20112;-64
2022/03/28 00:04:08;;;;;;;0.00;0.00;;;11.00;69.90;;;;;;5063967;28;20021;-74
2022/03/28 00:06:34;;;;;;;0.00;0.00;;;11.00;70.80;;;;;;5064239;28;20047;-66
2022/03/28 00:09:00;;;;;;;0.00;0.00;;;11.00;69.70;;;;;;5045869;28;20299;-64
2022/03/28 00:11:27;;;;;;;0.00;0.00;;;11.00;69.10;;;;;;5066966;28;20024;-65
2022/03/28 00:13:53;;;;;;;0.00;0.00;;;11.00;69.60;;;;;;5065415;28;20142;-76
2022/03/28 00:16:19;;;;;;;0.00;0.00;;;11.00;71.00;;;;;;5066148;28;20326;-64
2022/03/28 00:18:44;;;;;;;0.00;0.00;;;11.00;69.70;;;;;;5083777;28;20099;-64
2022/03/28 00:21:10;;;;;;;0.00;0.00;;;11.00;72.50;;;;;;5064502;28;20359;-65
2022/03/28 00:23:36;;;;;;;0.00;0.00;;;10.90;69.80;;;;;;5063782;28;20028;-64
2022/03/28 00:26:02;;;;;;;0.00;0.00;;;10.90;71.50;;;;;;5045402;28;20110;-67
2022/03/28 00:28:28;;;;;;;0.00;0.00;;;10.90;75.70;;;;;;5045809;28;20025;-64
2022/03/28 00:30:54;;;;;;;0.00;0.00;;;10.90;74.30;;;;;;5045456;28;20024;-72
2022/03/28 00:33:20;;;;;;;0.00;0.00;;;10.80;75.10;;;;;;5082018;28;20211;-65
2022/03/28 00:35:45;;;;;;;0.00;0.00;;;10.80;74.20;;;;;;5083558;28;20035;-65
2022/03/28 00:38:12;;;;;;;0.00;0.00;;;10.70;74.40;;;;;;5082775;28;20027;-64
2022/03/28 00:40:38;;;;;;;0.00;0.00;;;10.70;76.90;;;;;;5083404;28;20083;-65
2022/03/28 00:43:07;;;;;;;0.00;0.00;;;10.60;76.70;;;;;;5066568;28;20025;-66
2022/03/28 00:45:33;;;;;;;;;;;10.60;76.60;;;;;;5064077;28;20088;-65
2022/03/28 00:48:00;;;;;;;0.00;0.00;;;10.60;77.70;;;;;;5062497;28;19993;-66
2022/03/28 00:50:28;;;;;;;0.00;0.00;;;10.50;76.60;;;;;;5063232;28;20070;-66
2022/03/28 00:52:54;;;;;;;0.00;0.00;;;10.50;78.10;;;;;;5076915;28;20052;-75
2022/03/28 00:55:20;;;;;;;0.00;0.00;;;10.40;78.40;;;;;;5048338;28;20051;-65
2022/03/28 00:57:46;;;;;;;0.00;0.00;;;10.40;78.50;;;;;;5065531;28;20111;-65
2022/03/28 01:00:13;;;;;;;0.00;0.00;;;10.30;77.90;;;;;;5082305;28;20022;-65
2022/03/28 01:02:39;;;;;;;0.00;0.00;;;10.30;80.40;;;;;;5070648;28;20367;-66
2022/03/28 01:05:06;;;;;;;0.00;0.00;;;10.30;81.00;;;;;;5062311;28;20299;-66
2022/03/28 01:07:32;;;;;;;0.00;0.00;;;10.20;81.70;;;;;;5045291;28;20056;-66
2022/03/28 01:10:01;;;;;;;0.00;0.00;;;10.20;80.40;;;;;;5062419;28;20021;-75
2022/03/28 01:12:32;;;;;;;0.00;0.00;;;10.10;80.60;;;;;;5073080;28;20028;-65
2022/03/28 01:14:59;;;;;;;0.00;0.00;;;10.10;80.40;;;;;;5064470;28;20142;-73
2022/03/28 01:20:10;;;;;;;0.00;0.00;;;10.00;78.10;;;;;;5080418;28;20073;-65
2022/03/28 01:22:37;;;;;;;0.00;0.00;;;9.90;77.60;;;;;;5082685;28;20085;-65
2022/03/28 01:25:05;;;;;;;0.00;0.00;;;9.90;77.10;;;;;;5064216;28;20302;-65
2022/03/28 01:27:32;;;;;;;0.00;0.00;;;9.80;78.90;;;;;;5064659;28;20095;-65
2022/03/28 01:29:58;;;;;;;0.00;0.00;;;9.80;79.90;;;;;;5075584;28;20071;-74
2022/03/28 01:32:24;;;;;;;0.00;0.00;;;9.80;81.00;;;;;;5062407;28;20020;-65
2022/03/28 01:34:50;;;;;;;0.00;0.00;;;9.80;81.90;;;;;;5062812;28;20076;-66
2022/03/28 01:37:15;;;;;;;0.00;0.00;;;9.70;81.90;;;;;;5043988;28;20444;-66
2022/03/28 01:39:41;;;;;;;0.00;0.00;;;9.70;82.00;;;;;;5048230;28;20299;-66
2022/03/28 01:42:08;;;;;;;0.00;0.00;;;9.60;81.30;;;;;;5081996;28;20025;-66
2022/03/28 01:44:33;;;;;;;0.00;0.00;;;9.60;82.40;;;;;;5064759;28;20028;-65
2022/03/28 01:46:59;;;;;;;0.00;0.00;;;9.60;81.60;;;;;;5064318;28;20024;-77
2022/03/28 01:49:25;;;;;;;0.00;0.00;;;9.50;81.50;;;;;;5080775;28;20208;-64
2022/03/28 01:51:51;;;;;;;0.00;0.00;;;9.50;81.60;;;;;;5044724;28;20017;-65
2022/03/28 01:54:17;;;;;;;0.00;0.00;;;9.50;82.70;;;;;;5080413;28;20201;-65
2022/03/28 01:56:43;;;;;;;0.00;0.00;;;9.50;83.20;;;;;;5067939;28;20024;-74
2022/03/28 01:59:10;;;;;;;0.00;0.00;;;9.40;83.20;;;;;;5068116;28;20079;-64
2022/03/28 02:01:37;;;;;;;0.00;0.00;;;9.40;81.30;;;;;;5046554;28;20028;-64
2022/03/28 02:04:04;;;;;;;0.00;0.00;;;9.30;81.30;;;;;;5059674;28;20389;-74
2022/03/28 02:06:32;;;;;;;0.00;0.00;;;9.30;80.80;;;;;;5067123;28;20089;-68
2022/03/28 02:08:58;;;;;;;;;;;9.30;79.20;;;;;;5062103;28;20074;-72
2022/03/28 02:11:23;;;;;;;0.00;0.00;;;9.20;78.50;;;;;;5062631;28;19916;-65
2022/03/28 02:13:49;;;;;;;0.00;0.00;;;9.10;78.70;;;;;;5062789;28;20095;-68
2022/03/28 02:16:15;;;;;;;0.00;0.00;;;9.10;79.70;;;;;;5063425;28;20033;-66
2022/03/28 02:18:41;;;;;;;0.00;0.00;;;9.10;78.90;;;;;;5030381;28;20221;-66
2022/03/28 02:21:07;;;;;;;0.00;0.00;;;9.10;79.00;;;;;;5021662;28;20068;-65
2022/03/28 02:23:33;;;;;;;0.00;0.00;;;9.10;77.60;;;;;;5037415;28;20018;-64
2022/03/28 02:25:59;;;;;;;0.00;0.00;;;9.00;77.80;;;;;;5037332;28;20220;-74
2022/03/28 02:28:24;;;;;;;0.00;0.00;;;9.00;77.90;;;;;;5020777;28;20068;-64
2022/03/28 02:30:50;;;;;;;0.00;0.00;;;8.90;78.40;;;;;;5037669;28;20033;-66
2022/03/28 02:33:17;;;;;;;0.00;0.00;;;9.00;81.20;;;;;;5044906;28;20017;-63
2022/03/28 02:35:43;;;;;;;0.00;0.00;;;8.90;80.90;;;;;;5044755;28;20021;-64
2022/03/28 02:38:27;;;;;;;0.00;0.00;;;8.90;80.10;;;;;;5045388;28;20021;-65
2022/03/28 02:40:53;;;;;;;0.00;0.00;;;8.80;79.60;;;;;;5033301;28;20186;-64
2022/03/28 02:43:21;;;;;;;0.00;0.00;;;8.80;78.20;;;;;;5025083;28;20080;-65
2022/03/28 02:45:47;;;;;;;0.00;0.00;;;8.80;79.20;;;;;;5024572;28;20029;-64
2022/03/28 02:48:13;;;;;;;0.00;0.00;;;8.70;79.10;;;;;;5025251;28;20216;-65
2022/03/28 02:50:57;;;;;;;0.00;0.00;;;8.70;80.40;;;;;;5041508;28;20212;-65
2022/03/28 02:53:23;;;;;;;0.00;0.00;;;8.70;80.50;;;;;;5024116;28;20017;-66
2022/03/28 02:55:49;;;;;;;0.00;0.00;;;8.70;80.40;;;;;;5024535;28;20029;-66
2022/03/28 02:58:14;;;;;;;0.00;0.00;;;8.70;82.60;;;;;;5023979;28;20025;-66
2022/03/28 03:00:40;;;;;;;0.00;0.00;;;8.70;81.30;;;;;;5034166;28;20083;-68
2022/03/28 03:03:06;;;;;;;0.00;0.00;;;8.70;80.50;;;;;;5033704;28;20017;-64
2022/03/28 03:05:31;;;;;;;0.00;0.00;;;8.60;79.40;;;;;;5032897;28;20293;-64
2022/03/28 03:07:57;;;;;;;0.00;0.00;;;8.60;78.70;;;;;;5034384;28;20021;-64
2022/03/28 03:10:23;;;;;;;0.00;0.00;;;8.60;81.70;;;;;;5034193;28;20259;-66
2022/03/28 03:12:48;;;;;;;0.00;0.00;;;8.50;82.80;;;;;;5034307;28;20015;-68
2022/03/28 03:15:14;;;;;;;0.00;0.00;;;8.50;82.70;;;;;;5031664;28;20277;-65
2022/03/28 03:17:41;;;;;;;0.00;0.00;;;8.50;82.50;;;;;;5040891;28;20059;-66
2022/03/28 03:20:07;;;;;;;0.00;0.00;;;8.50;83.30;;;;;;5072538;28;20091;-66
2022/03/28 03:22:33;;;;;;;0.00;0.00;;;8.40;84.10;;;;;;5057895;28;20021;-65
2022/03/28 03:25:17;;;;;;;0.00;0.00;;;8.40;82.60;;;;;;5059312;28;20051;-65
2022/03/28 03:27:43;;;;;;;0.00;0.00;;;8.30;81.70;;;;;;5073834;28;20067;-65
2022/03/28 03:30:11;;;;;;;0.00;0.00;;;8.30;80.90;;;;;;5055141;28;20029;-66
2022/03/28 03:32:37;;;;;;;0.00;0.00;;;8.20;80.80;;;;;;5072299;28;20021;-64
2022/03/28 03:35:04;;;;;;;0.00;0.00;;;8.20;81.00;;;;;;5056718;28;20017;-72
2022/03/28 03:37:30;;;;;;;0.00;0.00;;;8.20;83.00;;;;;;5055962;28;20028;-65
2022/03/28 03:39:56;;;;;;;0.00;0.00;;;8.20;83.60;;;;;;5074756;28;20075;-64
2022/03/28 03:42:21;;;;;;;0.00;0.00;;;8.10;83.60;;;;;;5055776;28;20013;-64
2022/03/28 03:44:47;;;;;;;0.00;0.00;;;8.10;82.80;;;;;;5055872;28;20096;-64
2022/03/28 03:47:13;;;;;;;0.00;0.00;;;8.10;82.30;;;;;;5053893;28;20185;-64
2022/03/28 03:49:39;;;;;;;0.00;0.00;;;8.10;82.70;;;;;;5055601;28;20017;-64
2022/03/28 03:52:05;;;;;;;0.00;0.00;;;8.00;83.10;;;;;;5073682;28;20016;-71
2022/03/28 03:54:31;;;;;;;0.00;0.00;;;8.10;84.60;;;;;;5057074;28;20019;-64
2022/03/28 03:56:57;;;;;;;0.00;0.00;;;8.00;84.00;;;;;;5054962;28;20017;-64
2022/03/28 03:59:23;;;;;;;0.00;0.00;;;8.00;83.40;;;;;;5074218;28;20045;-64
2022/03/28 04:01:49;;;;;;;0.00;0.00;;;8.00;83.10;;;;;;5074851;28;20288;-64
2022/03/28 04:04:14;;;;;;;0.00;0.00;;;8.00;83.30;;;;;;5071908;28;20021;-64
2022/03/28 04:06:40;;;;;;;0.00;0.00;;;7.90;83.10;;;;;;5072262;28;20126;-64
2022/03/28 04:09:06;;;;;;;0.00;0.00;;;7.90;84.10;;;;;;5056516;28;20024;-72
2022/03/28 04:11:32;;;;;;;0.00;0.00;;;7.90;85.90;;;;;;5077646;28;20031;-64
2022/03/28 04:13:58;;;;;;;0.00;0.00;;;7.90;84.50;;;;;;5081672;28;20260;-64
2022/03/28 04:16:24;;;;;;;0.00;0.00;;;7.80;83.70;;;;;;5053829;28;20052;-63
2022/03/28 04:18:50;;;;;;;0.00;0.00;;;7.90;83.90;;;;;;5066773;28;20072;-63
2022/03/28 04:21:15;;;;;;;0.00;0.00;;;7.90;83.50;;;;;;5056318;28;20200;-63
2022/03/28 04:23:41;;;;;;;0.00;0.00;;;7.90;84.20;;;;;;5065289;28;20214;-68
2022/03/28 04:26:07;;;;;;;0.00;0.00;;;7.80;84.70;;;;;;5066468;28;20055;-67
2022/03/28 04:28:33;;;;;;;0.00;0.00;;;7.80;84.70;;;;;;5054880;28;20024;-70
2022/03/28 04:30:59;;;;;;;0.00;0.00;;;7.80;83.80;;;;;;5065521;28;20032;-65
2022/03/28 04:33:25;;;;;;;0.00;0.00;;;7.80;83.60;;;;;;5060150;28;20258;-65
2022/03/28 04:35:51;;;;;;;0.00;0.00;;;7.70;84.40;;;;;;5056623;28;20066;-66
2022/03/28 04:38:17;;;;;;;0.00;0.00;;;7.80;84.80;;;;;;5054955;28;20096;-63
2022/03/28 04:40:42;;;;;;;0.00;0.00;;;7.80;84.80;;;;;;5061474;28;20028;-72
2022/03/28 04:43:08;;;;;;;0.00;0.00;;;7.80;83.80;;;;;;5058264;28;20208;-71
2022/03/28 04:45:35;;;;;;;0.00;0.00;;;7.80;83.40;;;;;;5060594;28;20020;-63
2022/03/28 04:48:02;;;;;;;0.00;0.00;;;7.80;84.50;;;;;;5066326;28;20024;-63
2022/03/28 04:50:29;;;;;;;0.00;0.00;;;7.80;83.80;;;;;;5079326;28;20206;-63
2022/03/28 04:52:54;;;;;;;0.00;0.00;;;7.70;84.30;;;;;;5062401;28;20025;-63
2022/03/28 04:55:21;;;;;;;0.00;0.00;;;7.70;84.10;;;;;;5063048;28;20047;-64
2022/03/28 04:57:47;;;;;;;0.00;0.00;;;7.80;84.10;;;;;;5060551;28;20028;-63
2022/03/28 05:00:13;;;;;;;0.00;0.00;;;7.70;84.00;;;;;;5058839;28;20029;-66
2022/03/28 05:02:39;;;;;;;0.00;0.00;;;7.70;85.70;;;;;;5071240;28;20307;-66
2022/03/28 05:05:06;;;;;;;0.00;0.00;;;7.70;86.00;;;;;;5089677;28;20083;-65
2022/03/28 05:07:32;;;;;;;0.00;0.00;;;7.70;84.80;;;;;;5095737;28;20404;-66
2022/03/28 05:10:01;;;;;;;0.00;0.00;;;7.70;84.60;;;;;;5069208;28;20311;-66
2022/03/28 05:12:27;;;;;;;0.00;0.00;;;7.70;83.80;;;;;;5091523;28;20044;-65
2022/03/28 05:14:54;;;;;;;0.00;0.00;;;7.70;84.00;;;;;;5081225;28;20042;-65
2022/03/28 05:17:21;;;;;;;0.00;0.00;;;7.70;85.20;;;;;;5064886;28;20021;-64
2022/03/28 05:19:47;;;;;;;0.00;0.00;;;7.70;84.60;;;;;;5085356;28;20048;-64
2022/03/28 05:22:12;;;;;;;0.00;0.00;;;7.70;85.40;;;;;;5089960;28;20066;-72
2022/03/28 05:24:38;;;;;;;0.00;0.00;;;7.70;86.20;;;;;;5079414;28;20269;-65
2022/03/28 05:27:04;;;;;;;0.00;0.00;;;7.70;85.70;;;;;;5087098;28;20016;-64
2022/03/28 05:29:30;;;;;;;0.00;0.00;;;7.70;86.00;;;;;;5078369;28;20033;-69
2022/03/28 05:31:56;;;;;;;0.00;0.00;;;7.70;87.30;;;;;;5057028;28;20271;-70
2022/03/28 05:34:21;;;;;;;0.00;0.00;;;7.80;87.20;;;;;;5075099;28;20038;-71
2022/03/28 05:36:47;;;;;;;0.00;0.00;;;7.80;87.50;;;;;;5073868;28;20195;-68
2022/03/28 05:39:13;;;;;;;0.00;0.00;;;7.80;87.00;;;;;;5064337;28;20028;-78
2022/03/28 05:41:39;;;;;;;0.00;0.00;;;7.80;84.80;;;;;;5082988;28;20254;-66
2022/03/28 05:44:05;;;;;;;0.00;0.00;;;7.80;86.40;;;;;;5064717;28;20027;-65
2022/03/28 05:46:31;;;;;;;0.00;0.00;;;7.80;85.60;;;;;;5081237;28;20376;-64
2022/03/28 05:48:56;;;;;;;0.00;0.00;;;7.80;85.10;;;;;;5082451;28;20125;-65
2022/03/28 05:51:24;;;;;;;0.00;0.00;;;7.80;86.10;;;;;;5074316;28;20025;-70
2022/03/28 05:53:51;;;;;;;0.00;0.00;;;7.90;85.80;;;;;;5074261;28;20047;-64
2022/03/28 05:56:17;;;;;;;0.00;0.00;;;7.90;83.80;;;;;;5066910;28;20067;-64
2022/03/28 05:58:43;;;;;;;0.00;0.00;;;7.90;85.70;;;;;;5076864;28;20025;-67
2022/03/28 06:01:09;;;;;;;0.00;0.00;;;7.90;88.30;;;;;;5069184;28;20308;-67
2022/03/28 06:03:35;;;;;;;0.00;0.00;;;8.00;88.30;;;;;;5051469;28;20284;-66
2022/03/28 06:06:07;;;;;;;0.00;0.00;;;8.00;88.70;;;;;;5072034;28;20203;-66
2022/03/28 06:08:32;;;;;;;0.00;0.00;;;8.00;89.50;;;;;;5061751;28;20036;-67
2022/03/28 06:10:58;;;;;;;0.00;0.00;;;8.10;89.70;;;;;;5067659;28;20095;-67
2022/03/28 06:13:24;;;;;;;0.00;0.00;;;8.10;90.10;;;;;;5055311;28;20067;-68
2022/03/28 06:15:49;;;;;;;0.00;0.00;;;8.20;83.80;;;;;;5047114;28;20032;-67
2022/03/28 06:18:15;;;;;;;0.00;0.00;;;8.40;85.00;;;;;;5046939;28;20047;-80
2022/03/28 06:20:41;;;;;;;0.00;0.00;;;8.40;88.30;;;;;;5062402;28;20445;-66
2022/03/28 06:23:09;;;;;;;0.00;0.00;;;8.40;89.90;;;;;;5046340;28;20181;-67
2022/03/28 06:25:35;;;;;;;0.00;0.00;;;8.40;90.10;;;;;;5045398;28;20044;-66
2022/03/28 06:28:01;;;;;;;0.00;0.00;;;8.40;90.00;;;;;;5062747;28;20044;-67
2022/03/28 06:30:27;;;;;;;0.00;0.00;;;8.50;86.80;;;;;;5066971;28;20025;-74
2022/03/28 06:32:52;;;;;;;0.00;0.00;;;8.50;83.40;;;;;;5063193;28;20024;-73
2022/03/28 06:35:18;;;;;;;0.00;0.00;;;8.70;85.50;;;;;;5063751;28;20020;-71
2022/03/28 06:37:44;;;;;;;0.00;0.00;;;8.70;85.20;;;;;;5059900;28;20193;-68
2022/03/28 06:40:10;;;;;;;0.00;0.00;;;8.70;87.20;;;;;;5057805;28;20029;-68
2022/03/28 06:42:36;;;;;;;0.00;0.00;;;8.80;89.00;;;;;;5042278;28;20109;-65
2022/03/28 06:45:03;;;;;;;0.00;0.00;;;8.80;90.30;;;;;;5053209;28;20112;-78
2022/03/28 06:47:29;;;;;;;0.00;0.00;;;8.70;91.00;;;;;;5034598;28;20029;-67
2022/03/28 06:49:55;;;;;;;0.00;0.00;;;8.80;89.30;;;;;;5062177;28;20020;-69
2022/03/28 06:52:21;;;;;;;0.00;0.00;;;8.80;90.00;;;;;;5042391;28;20029;-66
2022/03/28 06:54:46;;;;;;;0.00;0.00;;;8.80;89.60;;;;;;5064453;28;20067;-67
2022/03/28 06:57:12;;;;;;;0.00;0.00;;;8.90;90.20;;;;;;5045539;28;20211;-77
2022/03/28 06:59:38;;;;;;;0.00;0.00;;;8.90;90.20;;;;;;5053451;28;20287;-68
2022/03/28 07:02:04;;;;;;;0.00;0.00;;;9.00;87.90;;;;;;5057951;28;20040;-74
2022/03/28 07:04:30;;;;;;;0.00;0.00;;;9.10;89.60;;;;;;5058765;28;20025;-66
2022/03/28 07:06:56;;;;;;;0.00;0.00;;;9.10;90.10;;;;;;5063609;28;20025;-68
2022/03/28 07:09:22;;;;;;;0.00;0.00;;;9.10;88.10;;;;;;5058897;28;20060;-78
2022/03/28 07:11:47;;;;;;;0.00;0.00;;;9.10;89.60;;;;;;5067495;28;20024;-67
2022/03/28 07:14:16;;;;;;;0.00;0.00;;;9.20;89.30;;;;;;5064262;28;20250;-78
2022/03/28 07:16:42;;;;;;;0.00;0.00;;;9.20;88.10;;;;;;5065754;28;20125;-78
2022/03/28 07:19:08;;;;;;;0.00;0.00;;;9.30;87.50;;;;;;5057579;28;20044;-68
2022/03/28 07:21:34;;;;;;;0.00;0.00;;;9.30;87.50;;;;;;5046045;28;20052;-67
2022/03/28 07:24:00;;;;;;;0.00;0.00;;;9.40;85.40;;;;;;5065137;28;20025;-68
2022/03/28 07:26:26;;;;;;;0.00;0.00;;;9.50;87.10;;;;;;5055421;28;20050;-68
2022/03/28 07:28:55;;;;;;;0.00;0.00;;;9.50;86.60;;;;;;5063622;28;20025;-74
2022/03/28 07:31:21;;;;;;;0.00;0.00;;;9.70;87.80;;;;;;5054011;28;20319;-72
2022/03/28 07:33:47;;;;;;;0.00;0.00;;;9.70;88.80;;;;;;5065768;28;20031;-67
2022/03/28 07:36:15;;;;;;;0.00;0.00;;;9.70;88.60;;;;;;5062083;28;20040;-67
2022/03/28 07:38:41;;;;;;;0.00;0.00;;;9.80;85.90;;;;;;5044017;28;20667;-79
2022/03/28 07:41:08;;;;;;;0.00;0.00;;;9.90;84.50;;;;;;5064067;28;20079;-67
2022/03/28 07:43:34;;;;;;;0.00;0.00;;;9.90;86.40;;;;;;5063278;28;20032;-67
2022/03/28 07:46:00;;;;;;;0.00;0.00;;;10.00;87.00;;;;;;5062038;28;20021;-66
2022/03/28 07:48:27;;;;;;;0.00;0.00;;;10.00;88.10;;;;;;5062380;28;20037;-73
2022/03/28 07:50:53;;;;;;;0.00;0.00;;;10.10;85.90;;;;;;5062396;28;20123;-76
2022/03/28 07:53:19;;;;;;;0.00;0.00;;;10.10;86.80;;;;;;5063718;28;20032;-67
2022/03/28 07:55:45;;;;;;;0.00;0.00;;;10.20;85.20;;;;;;5040726;28;20306;-72
2022/03/28 07:58:12;;;;;;;0.00;0.00;;;10.30;84.10;;;;;;5043875;28;20542;-71
2022/03/28 08:00:40;;;;;;;0.00;0.00;;;10.30;85.70;;;;;;5063340;28;20024;-66
2022/03/28 08:03:06;;;;;;;0.00;0.00;;;10.30;86.30;;;;;;5035907;28;20029;-66
2022/03/28 08:05:32;;;;;;;0.00;0.00;;;10.40;86.80;;;;;;5039342;28;20032;-76
2022/03/28 08:07:58;;;;;;;0.00;0.00;;;10.50;87.00;;;;;;5043450;28;20082;-67
2022/03/28 08:10:25;;;;;;;0.00;0.00;;;10.50;86.30;;;;;;5061410;28;20035;-73
2022/03/28 08:12:52;;;;;;;0.00;0.00;;;10.60;87.10;;;;;;5060628;28;20062;-67
2022/03/28 08:15:19;;;;;;;0.00;0.00;;;10.70;87.50;;;;;;5049241;28;20071;-66
2022/03/28 08:18:04;;;;;;;0.00;0.00;;;10.80;83.50;;;;;;5058596;28;20036;-67
2022/03/28 08:20:30;;;;;;;0.00;0.00;;;10.90;82.50;;;;;;5039761;28;20099;-67
2022/03/28 08:22:59;;;;;;;0.00;0.00;;;11.10;81.30;;;;;;5059218;28;20029;-67
2022/03/28 08:25:25;;;;;;;0.00;0.00;;;11.10;79.50;;;;;;5050969;28;20043;-78
2022/03/28 08:27:51;;;;;;;0.00;0.00;;;11.20;81.50;;;;;;5060317;28;20045;-71
2022/03/28 08:30:18;;;;;;;0.00;0.00;;;11.20;83.90;;;;;;5060910;28;20029;-77
2022/03/28 08:32:46;;;;;;;0.00;0.00;;;11.20;85.70;;;;;;5043369;28;20901;-67
2022/03/28 08:35:16;;;;;;;0.00;0.00;;;11.30;84.80;;;;;;5040090;28;21001;-73
2022/03/28 08:37:42;;;;;;;0.00;0.00;;;11.30;84.60;;;;;;5062000;28;20032;-73
2022/03/28 08:40:08;;;;;;;0.00;0.00;;;11.40;81.90;;;;;;5063294;28;20311;-67
2022/03/28 08:42:35;;;;;;;0.00;0.00;;;11.40;84.70;;;;;;5059587;28;20029;-72
2022/03/28 08:45:01;;;;;;;0.00;0.00;;;11.40;86.80;;;;;;5063753;28;20354;-68
2022/03/28 08:47:27;;;;;;;0.00;0.00;;;11.50;81.50;;;;;;5060292;28;20337;-72
2022/03/28 08:49:54;;;;;;;0.00;0.00;;;11.60;80.70;;;;;;5050204;28;20083;-76
2022/03/28 08:52:23;;;;;;;0.00;0.00;;;11.70;82.30;;;;;;5044796;28;20032;-67
2022/03/28 08:54:50;;;;;;;0.00;0.00;;;11.70;80.70;;;;;;5053699;28;20028;-69
2022/03/28 08:57:17;;;;;;;0.00;0.00;;;11.80;78.90;;;;;;5043807;28;20462;-77
2022/03/28 08:59:42;;;;;;;0.00;0.00;;;11.90;79.90;;;;;;5053322;28;20774;-77
2022/03/28 09:02:41;;;;;;;0.00;0.00;;;12.10;78.40;;;;;;5057575;28;20021;-70
2022/03/28 09:05:09;;;;;;;0.00;0.00;;;12.10;81.60;;;;;;5058430;28;20251;-69
2022/03/28 09:07:35;;;;;;;0.00;0.00;;;12.20;77.00;;;;;;5039922;28;20025;-75
2022/03/28 09:10:17;;;;;;;0.00;0.00;;;12.30;75.80;;;;;;5062002;28;20032;-80
2022/03/28 09:13:09;;;;;;;0.00;0.00;;;12.40;78.00;;;;;;5061040;28;20886;-73
2022/03/28 09:15:47;;;;;;;0.00;0.00;;;12.50;77.50;;;;;;5043180;28;20028;-68
2022/03/28 09:18:34;;;;;;;0.00;0.00;;;12.60;78.60;;;;;;5061847;28;20052;-71
2022/03/28 09:21:03;;;;;;;0.00;0.00;;;12.60;76.80;;;;;;5059715;28;20031;-71
2022/03/28 09:23:35;;;;;;;0.00;0.00;;;12.60;79.80;;;;;;5060137;28;20037;-77
2022/03/28 09:26:13;;;;;;;0.00;0.00;;;12.70;77.30;;;;;;5044661;28;20024;-75
2022/03/28 09:28:49;;;;;;;0.00;0.00;;;12.80;76.10;;;;;;5063318;28;20040;-73
2022/03/28 09:31:24;;;;;;;0.00;0.00;;;12.80;75.90;;;;;;5056121;28;20357;-77
2022/03/28 09:33:50;;;;;;;0.00;0.00;;;12.90;76.80;;;;;;5059429;28;20028;-70
2022/03/28 09:36:16;;;;;;;0.00;0.00;;;12.90;78.60;;;;;;5059734;28;20549;-78
2022/03/28 09:38:54;;;;;;;0.00;0.00;;;13.00;78.60;;;;;;5061877;28;20055;-78
2022/03/28 09:41:23;;;;;;;0.00;0.00;;;13.10;79.90;;;;;;5058336;28;20036;-67
2022/03/28 09:43:57;;;;;;;0.00;0.00;;;13.10;80.60;;;;;;5064186;28;20095;-68
2022/03/28 09:46:30;;;;;;;0.00;0.00;;;13.20;81.30;;;;;;5062802;28;20039;-78
2022/03/28 09:48:59;;;;;;;0.00;0.00;;;13.30;81.10;;;;;;5041365;28;20331;-76
2022/03/28 09:51:30;;;;;;;0.00;0.00;;;13.40;83.20;;;;;;5058527;28;20036;-70
2022/03/28 09:53:58;;;;;;;0.00;0.00;;;13.50;79.40;;;;;;5046623;28;20070;-77
2022/03/28 09:56:24;;;;;;;0.00;0.00;;;13.70;78.30;;;;;;5060786;28;20066;-80
2022/03/28 09:58:56;;;;;;;0.00;0.00;;;13.80;75.80;;;;;;5060569;28;20024;-66
2022/03/28 10:01:39;;;;;;;0.00;0.00;;;13.80;73.90;;;;;;5061999;28;20027;-79
2022/03/28 10:04:08;;;;;;;0.00;0.00;;;13.90;76.90;;;;;;5046098;28;20025;-71
2022/03/28 10:06:38;;;;;;;0.00;0.00;;;14.00;78.20;;;;;;5042262;28;20139;-75
2022/03/28 10:09:08;;;;;;;0.00;0.00;;;14.00;79.70;;;;;;5049408;28;20031;-70
2022/03/28 10:11:36;;;;;;;0.00;0.00;;;14.10;81.10;;;;;;5058153;28;20096;-74
2022/03/28 10:14:02;;;;;;;0.00;0.00;;;14.30;85.60;;;;;;5061124;28;20032;-78
2022/03/28 10:16:28;;;;;;;0.00;0.00;;;15.00;88.40;;;;;;5060927;28;20029;-73
2022/03/28 10:18:56;;;;;;;0.00;0.00;;;16.20;86.40;;;;;;5061668;28;20053;-77
2022/03/28 10:21:36;;;;;;;0.00;0.00;;;17.40;78.90;;;;;;5049081;28;20275;-78
2022/03/28 10:24:08;;;;;;;0.00;0.00;;;18.90;77.50;;;;;;5038946;28;20023;-79
2022/03/28 10:26:51;;;;;;;0.00;0.00;;;19.90;71.30;;;;;;5056927;28;20055;-75
2022/03/28 10:29:21;;;;;;;0.00;0.00;;;20.60;74.00;;;;;;5053152;28;20039;-76
2022/03/28 10:31:55;;;;;;;0.00;0.00;;;21.20;72.30;;;;;;5039010;28;20024;-75
2022/03/28 10:35:01;;;;;;;0.00;0.00;;;21.90;71.20;;;;;;5059902;28;20017;-73
2022/03/28 10:37:33;;;;;;;0.00;0.00;;;22.30;63.00;;;;;;5039650;28;20103;-77
2022/03/28 10:40:11;;;;;;;0.00;0.00;;;22.60;65.20;;;;;;5048471;28;20199;-73
2022/03/28 10:42:39;;;;;;;0.00;0.00;;;22.80;63.00;;;;;;5058373;28;20095;-68
2022/03/28 10:45:11;;;;;;;0.00;0.00;;;23.10;64.80;;;;;;5038615;28;20045;-70
2022/03/28 10:47:54;;;;;;;0.00;0.00;;;23.30;67.70;;;;;;5057459;28;20174;-67
2022/03/28 10:50:31;;;;;;;0.00;0.00;;;23.50;61.40;;;;;;5038975;28;20036;-68
2022/03/28 10:53:03;;;;;;;0.00;0.00;;;23.70;61.20;;;;;;5062013;28;20016;-71
2022/03/28 10:55:37;;;;;;;0.00;0.00;;;23.70;59.70;;;;;;5062557;28;20059;-68
2022/03/28 10:58:23;;;;;;;0.00;0.00;;;23.90;58.70;;;;;;5050813;28;20096;-76
2022/03/28 11:01:13;;;;;;;0.00;0.00;;;24.10;54.20;;;;;;5061656;28;20021;-70
2022/03/28 11:03:39;;;;;;;0.00;0.00;;;24.10;55.20;;;;;;5042723;28;20066;-74
2022/03/28 11:06:05;;;;;;;0.00;0.00;;;24.30;61.50;;;;;;5053356;28;20354;-71
2022/03/28 11:08:32;;;;;;;0.00;0.00;;;24.20;57.00;;;;;;5063344;28;20413;-77
2022/03/28 11:11:17;;;;;;;0.00;0.00;;;24.10;54.50;;;;;;5065237;28;20021;-77
2022/03/28 11:13:43;;;;;;;0.00;0.00;;;24.40;61.50;;;;;;5067700;28;20343;-72
2022/03/28 11:16:19;;;;;;;0.00;0.00;;;24.40;56.30;;;;;;5066763;28;20084;-68
2022/03/28 11:19:20;;;;;;;0.00;0.00;;;24.40;58.50;;;;;;5066306;28;20048;-67
2022/03/28 11:22:04;;;;;;;0.00;0.00;;;24.40;52.90;;;;;;5066685;28;20032;-76
2022/03/28 11:24:48;;;;;;;0.00;0.00;;;24.30;58.80;;;;;;5046337;28;20203;-67
2022/03/28 11:27:19;;;;;;;0.00;0.00;;;24.20;55.20;;;;;;5068268;28;20082;-67
2022/03/28 11:29:46;;;;;;;0.00;0.00;;;24.10;54.40;;;;;;5065331;28;20244;-66
2022/03/28 11:32:17;;;;;;;0.00;0.00;;;24.10;54.30;;;;;;5052866;28;20075;-73
2022/03/28 11:34:54;;;;;;;0.00;0.00;;;24.30;57.90;;;;;;5062817;28;20051;-72
2022/03/28 11:37:23;;;;;;;0.00;0.00;;;24.20;55.80;;;;;;5029991;28;20303;-71
2022/03/28 11:39:58;;;;;;;0.00;0.00;;;24.10;54.50;;;;;;5044707;28;20021;-73
2022/03/28 11:42:26;;;;;;;0.00;0.00;;;23.90;52.30;;;;;;5046144;28;20029;-68
2022/03/28 11:44:52;;;;;;;0.00;0.00;;;23.90;57.30;;;;;;5053618;28;20035;-76
2022/03/28 11:47:18;;;;;;;0.00;0.00;;;24.00;55.70;;;;;;5062541;28;20036;-67
2022/03/28 11:49:59;;;;;;;0.00;0.00;;;23.90;59.30;;;;;;5064160;28;20044;-69
2022/03/28 11:52:28;;;;;;;0.00;0.00;;;23.60;58.20;;;;;;5062450;28;20021;-77
2022/03/28 11:54:58;;;;;;;0.00;0.00;;;23.50;53.00;;;;;;5053398;28;20047;-78
2022/03/28 12:00:22;;;;;;;0.00;0.00;;;23.10;54.30;;;;;;5065087;28;20070;-71
2022/03/28 12:02:55;;;;;;;0.00;0.00;;;22.90;57.80;;;;;;5066502;28;20029;-70
2022/03/28 12:05:33;;;;;;;0.00;0.00;;;22.70;55.40;;;;;;5064623;28;20035;-70
2022/03/28 12:08:06;;;;;;;0.00;0.00;;;22.60;54.00;;;;;;5065032;28;20334;-72
2022/03/28 12:10:34;;;;;;;0.00;0.00;;;22.50;54.00;;;;;;5047241;28;20112;-77
2022/03/28 12:13:03;;;;;;;0.00;0.00;;;22.60;54.40;;;;;;5045786;28;20039;-73
2022/03/28 12:15:43;;;;;;;0.00;0.00;;;22.50;55.40;;;;;;5061012;28;20476;-68
2022/03/28 12:18:10;;;;;;;0.00;0.00;;;22.60;59.60;;;;;;5063767;28;20112;-67
2022/03/28 12:20:48;;;;;;;0.00;0.00;;;22.40;57.30;;;;;;5056175;28;20028;-68
2022/03/28 12:23:15;;;;;;;0.00;0.00;;;22.30;57.10;;;;;;5065460;28;20064;-67
2022/03/28 12:25:44;;;;;;;0.00;0.00;;;22.10;53.70;;;;;;5066690;28;20238;-81
2022/03/28 12:28:33;;;;;;;0.00;0.00;;;21.80;54.10;;;;;;5061439;28;20028;-68
2022/03/28 12:31:00;;;;;;;0.00;0.00;;;21.70;55.00;;;;;;5045819;28;20096;-69
2022/03/28 12:33:43;;;;;;;0.00;0.00;;;21.40;55.50;;;;;;5063288;28;20025;-72
2022/03/28 12:36:22;;;;;;;0.00;0.00;;;21.40;55.90;;;;;;5062606;28;20032;-68
2022/03/28 12:38:59;;;;;;;0.00;0.00;;;21.20;56.90;;;;;;5047540;28;20029;-68
2022/03/28 12:41:27;;;;;;;0.00;0.00;;;21.00;60.40;;;;;;5058917;28;20276;-77
2022/03/28 12:43:53;;;;;;;0.00;0.00;;;20.70;59.20;;;;;;5065173;28;20012;-72
2022/03/28 12:46:22;;;;;;;0.00;0.00;;;20.60;59.10;;;;;;5064094;28;20049;-70
2022/03/28 12:48:54;;;;;;;;;;;20.30;62.20;;;;;;5065312;28;20039;-68
2022/03/28 12:51:26;;;;;;;0.00;0.00;;;20.10;63.10;;;;;;5066481;28;19912;-68
2022/03/28 12:54:11;;;;;;;0.00;0.00;;;20.00;60.10;;;;;;5066262;28;20029;-74
2022/03/28 12:56:45;;;;;;;0.00;0.00;;;19.80;62.20;;;;;;5061941;28;20040;-68
2022/03/28 12:59:20;;;;;;;0.00;0.00;;;19.60;59.90;;;;;;5043077;28;20035;-83
2022/03/28 13:01:46;;;;;;;0.00;0.00;;;19.60;59.40;;;;;;5062753;28;20024;-68
2022/03/28 13:04:21;;;;;;;0.00;0.00;;;19.60;59.20;;;;;;5058449;28;20195;-69
2022/03/28 13:06:50;;;;;;;0.00;0.00;;;19.50;59.90;;;;;;5056233;28;20052;-72